createdAt,value
2022-11-27T00:03:31.597Z,101448.00
2022-11-27T00:08:41.114Z,101449.40
2022-11-27T00:13:51.657Z,101440.40
2022-11-27T00:19:01.479Z,101441.00
2022-11-27T00:24:12.397Z,101441.80
2022-11-27T00:29:21.718Z,101440.80
2022-11-27T00:34:31.548Z,101438.60
2022-11-27T00:39:41.131Z,101434.40
2022-11-27T00:44:50.529Z,101439.40
2022-11-27T00:50:00.126Z,101434.60
2022-11-27T00:55:11.707Z,101428.20
2022-11-27T01:00:23.670Z,101421.80
2022-11-27T01:05:33.224Z,101416.40
2022-11-27T01:10:54.437Z,101421.20
2022-11-27T01:16:07.151Z,101420.60
2022-11-27T01:21:19.283Z,101416.80
2022-11-27T01:26:29.234Z,101418.20
2022-11-27T01:31:39.884Z,101418.40
2022-11-27T01:36:49.634Z,101409.20
2022-11-27T01:41:58.943Z,101410.20
2022-11-27T01:47:15.985Z,101420.00
2022-11-27T01:52:30.348Z,101413.20
2022-11-27T01:57:45.814Z,101418.60
2022-11-27T02:02:55.443Z,101415.80
2022-11-27T02:08:09.964Z,101425.60
2022-11-27T02:13:30.609Z,101427.40
2022-11-27T02:18:50.293Z,101435.80
2022-11-27T02:24:23.607Z,101430.40
2022-11-27T02:29:35.630Z,101427.40
2022-11-27T02:34:53.477Z,101433.00
2022-11-27T02:40:11.741Z,101440.80
2022-11-27T02:45:27.849Z,101443.20
2022-11-27T02:50:41.693Z,101452.60
2022-11-27T02:55:54.368Z,101450.20
2022-11-27T03:01:07.277Z,101444.20
2022-11-27T03:06:23.123Z,101443.60
2022-11-27T03:11:33.035Z,101440.60
2022-11-27T03:16:52.659Z,101435.60
2022-11-27T03:22:04.811Z,101439.00
2022-11-27T03:27:20.817Z,101443.40
2022-11-27T03:32:32.458Z,101443.00
2022-11-27T03:37:42.642Z,101439.00
2022-11-27T03:43:05.185Z,101437.80
2022-11-27T03:48:31.029Z,101444.40
2022-11-27T03:53:53.822Z,101439.00
2022-11-27T03:59:10.136Z,101446.80
2022-11-27T04:04:20.280Z,101439.80
2022-11-27T04:09:29.878Z,101446.00
2022-11-27T04:14:39.699Z,101449.00
2022-11-27T04:19:49.337Z,101450.60
2022-11-27T04:24:58.957Z,101451.20
2022-11-27T04:30:11.134Z,101444.80
2022-11-27T04:35:20.770Z,101438.20
2022-11-27T04:40:30.189Z,101445.80
2022-11-27T04:45:40.020Z,101449.60
2022-11-27T04:50:49.646Z,101436.80
2022-11-27T04:55:59.059Z,101438.20
2022-11-27T05:01:09.162Z,101440.40
2022-11-27T05:06:18.961Z,101433.20
2022-11-27T05:11:28.682Z,101434.80
2022-11-27T05:16:38.279Z,101426.80
2022-11-27T05:21:49.119Z,101421.40
2022-11-27T05:26:59.342Z,101415.80
2022-11-27T05:32:09.288Z,101410.80
2022-11-27T05:37:20.033Z,101400.40
2022-11-27T05:42:29.792Z,101417.60
2022-11-27T05:47:39.291Z,101408.00
2022-11-27T05:52:48.721Z,101419.80
2022-11-27T05:57:58.672Z,101421.40
2022-11-27T06:03:08.314Z,101414.20
2022-11-27T06:08:17.798Z,101420.00
2022-11-27T06:13:27.321Z,101418.00
2022-11-27T06:18:37.051Z,101411.00
2022-11-27T06:23:47.306Z,101413.60
2022-11-27T06:28:57.941Z,101410.20
2022-11-27T06:34:08.402Z,101417.40
2022-11-27T06:39:18.079Z,101424.60
2022-11-27T06:44:27.721Z,101415.60
2022-11-27T06:49:37.978Z,101414.80
2022-11-27T06:54:47.637Z,101413.20
2022-11-27T06:59:57.525Z,101408.00
2022-11-27T07:05:07.781Z,101396.40
2022-11-27T07:10:17.724Z,101405.60
2022-11-27T07:15:27.359Z,101410.80
2022-11-27T07:20:37.271Z,101408.80
2022-11-27T07:25:47.133Z,101400.00
2022-11-27T07:31:01.197Z,101397.80
2022-11-27T07:36:17.237Z,101401.80
2022-11-27T07:41:33.538Z,101407.60
2022-11-27T07:46:43.968Z,101417.20
2022-11-27T07:51:53.454Z,101406.00
2022-11-27T07:57:02.916Z,101413.20
2022-11-27T08:02:16.048Z,101410.20
2022-11-27T08:07:30.247Z,101411.00
2022-11-27T08:12:39.992Z,101423.00
2022-11-27T08:17:49.417Z,101421.60
2022-11-27T08:23:02.780Z,101422.00
2022-11-27T08:28:12.953Z,101421.40
2022-11-27T08:33:22.509Z,101424.40
2022-11-27T08:38:32.190Z,101435.40
2022-11-27T08:43:41.801Z,101425.80
2022-11-27T08:48:51.308Z,101441.80
2022-11-27T08:54:00.878Z,101451.00
2022-11-27T08:59:10.539Z,101452.80
2022-11-27T09:04:20.135Z,101467.20
2022-11-27T09:09:29.875Z,101463.20
2022-11-27T09:14:39.895Z,101460.80
2022-11-27T09:19:49.763Z,101457.40
2022-11-27T09:24:59.169Z,101467.40
2022-11-27T09:30:11.960Z,101453.00
2022-11-27T09:35:22.102Z,101464.60
2022-11-27T09:40:32.062Z,101473.00
2022-11-27T09:45:50.417Z,101464.20
2022-11-27T09:51:03.392Z,101462.20
2022-11-27T09:56:20.400Z,101461.60
2022-11-27T10:01:42.948Z,101466.60
2022-11-27T10:07:22.573Z,101464.00
2022-11-27T10:12:53.016Z,101452.40
2022-11-27T10:18:13.393Z,101462.00
2022-11-27T10:23:41.930Z,101458.40
2022-11-27T10:29:03.795Z,101457.60
2022-11-27T10:34:32.442Z,101447.80
2022-11-27T10:39:47.745Z,101457.80
2022-11-27T10:45:03.535Z,101455.20
2022-11-27T10:50:20.675Z,101452.00
2022-11-27T10:55:57.357Z,101442.20
2022-11-27T11:01:10.197Z,101436.00
2022-11-27T11:06:24.859Z,101442.60
2022-11-27T11:11:34.590Z,101436.40
2022-11-27T11:16:48.822Z,101437.40
2022-11-27T11:22:00.065Z,101447.20
2022-11-27T11:27:16.585Z,101444.00
2022-11-27T11:32:32.221Z,101437.80
2022-11-27T11:37:48.240Z,101430.80
2022-11-27T11:43:00.517Z,101431.60
2022-11-27T11:48:28.228Z,101428.80
2022-11-27T11:53:41.625Z,101425.00
2022-11-27T11:59:02.098Z,101426.80
2022-11-27T12:04:39.971Z,101424.40
2022-11-27T12:10:05.600Z,101422.60
2022-11-27T12:15:26.819Z,101417.20
2022-11-27T12:20:56.205Z,101417.60
2022-11-27T12:26:18.464Z,101419.00
2022-11-27T12:31:50.233Z,101406.20
2022-11-27T12:37:24.339Z,101410.00
2022-11-27T12:42:45.302Z,101400.20
2022-11-27T12:48:02.259Z,101398.00
2022-11-27T12:53:24.933Z,101409.00
2022-11-27T12:58:39.689Z,101403.00
2022-11-27T13:04:06.642Z,101407.60
2022-11-27T13:09:27.695Z,101407.00
2022-11-27T13:14:44.902Z,101403.20
2022-11-27T13:19:57.113Z,101402.00
2022-11-27T13:25:07.935Z,101406.20
2022-11-27T13:30:26.688Z,101405.40
2022-11-27T13:35:43.667Z,101398.60
2022-11-27T13:40:57.693Z,101402.40
2022-11-27T13:46:12.212Z,101395.20
2022-11-27T13:51:32.159Z,101398.40
2022-11-27T13:56:42.240Z,101396.40
2022-11-27T14:02:05.385Z,101399.20
2022-11-27T14:07:16.550Z,101386.40
2022-11-27T14:12:31.308Z,101381.40
2022-11-27T14:17:44.765Z,101382.40
2022-11-27T14:23:13.710Z,101376.60
2022-11-27T14:28:27.317Z,101375.40
2022-11-27T14:34:07.505Z,101380.60
2022-11-27T14:39:29.532Z,101370.40
2022-11-27T14:44:39.495Z,101377.60
2022-11-27T14:49:56.091Z,101383.60
2022-11-27T14:55:07.088Z,101388.80
2022-11-27T15:00:29.064Z,101384.20
2022-11-27T15:05:40.507Z,101388.40
2022-11-27T15:10:51.040Z,101387.00
2022-11-27T15:16:15.746Z,101391.60
2022-11-27T15:21:27.562Z,101395.40
2022-11-27T15:26:41.185Z,101396.20
2022-11-27T15:31:56.893Z,101394.20
2022-11-27T15:37:20.016Z,101392.80
2022-11-27T15:42:30.497Z,101398.00
2022-11-27T15:47:41.812Z,101394.60
2022-11-27T15:52:51.461Z,101390.60
2022-11-27T15:58:00.894Z,101393.20
2022-11-27T16:03:10.735Z,101391.60
2022-11-27T16:08:20.473Z,101382.60
2022-11-27T16:13:30.275Z,101381.60
2022-11-27T16:18:40.113Z,101383.40
2022-11-27T16:23:49.966Z,101380.00
2022-11-27T16:29:00.089Z,101380.40
2022-11-27T16:34:09.837Z,101378.60
2022-11-27T16:39:19.914Z,101384.40
2022-11-27T16:44:29.604Z,101378.40
2022-11-27T16:49:39.158Z,101379.00
2022-11-27T16:54:48.609Z,101376.20
2022-11-27T16:59:58.674Z,101381.40
2022-11-27T17:05:09.319Z,101372.20
2022-11-27T17:10:19.249Z,101370.00
2022-11-27T17:15:28.783Z,101364.60
2022-11-27T17:20:38.424Z,101368.60
2022-11-27T17:25:47.769Z,101358.60
2022-11-27T17:30:57.302Z,101359.40
2022-11-27T17:36:07.809Z,101347.80
2022-11-27T17:41:18.289Z,101354.60
2022-11-27T17:46:30.720Z,101344.20
2022-11-27T17:51:41.503Z,101341.80
2022-11-27T17:56:51.771Z,101341.00
2022-11-27T18:02:01.311Z,101335.80
2022-11-27T18:07:11.168Z,101334.80
2022-11-27T18:12:21.298Z,101336.40
2022-11-27T18:17:30.919Z,101334.80
2022-11-27T18:22:40.315Z,101343.40
2022-11-27T18:27:49.741Z,101341.60
2022-11-27T18:32:59.422Z,101339.00
2022-11-27T18:38:09.053Z,101334.00
2022-11-27T18:43:18.725Z,101328.00
2022-11-27T18:48:28.685Z,101328.20
2022-11-27T18:53:39.525Z,101323.00
2022-11-27T18:58:50.003Z,101317.80
2022-11-27T19:04:03.047Z,101314.40
2022-11-27T19:09:13.511Z,101315.80
2022-11-27T19:14:23.166Z,101310.20
2022-11-27T19:25:03.037Z,101308.20
2022-11-27T19:30:15.289Z,101304.80
2022-11-27T19:35:26.810Z,101302.60
2022-11-27T19:40:38.985Z,101301.00
2022-11-27T19:45:48.841Z,101300.80
2022-11-27T19:51:04.140Z,101295.40
2022-11-27T19:56:15.114Z,101294.20
2022-11-27T20:01:25.084Z,101289.60
2022-11-27T20:06:35.148Z,101299.20
2022-11-27T20:11:44.531Z,101303.80
2022-11-27T20:16:54.102Z,101297.20
2022-11-27T20:22:04.006Z,101302.40
2022-11-27T20:27:13.707Z,101305.20
2022-11-27T20:32:23.757Z,101301.20
2022-11-27T20:37:34.199Z,101304.60
2022-11-27T20:42:44.053Z,101306.60
2022-11-27T20:47:53.824Z,101310.20
2022-11-27T20:53:03.288Z,101314.00
2022-11-27T20:58:12.840Z,101313.00
2022-11-27T21:03:22.469Z,101316.80
2022-11-27T21:08:32.321Z,101305.40
2022-11-27T21:13:42.420Z,101300.40
2022-11-27T21:18:55.285Z,101291.80
2022-11-27T21:24:05.609Z,101290.60
2022-11-27T21:29:16.485Z,101292.00
2022-11-27T21:34:26.577Z,101278.40
2022-11-27T21:39:36.142Z,101278.60
2022-11-27T21:44:45.678Z,101287.40
2022-11-27T21:49:56.359Z,101287.80
2022-11-27T21:55:11.671Z,101277.40
2022-11-27T22:00:23.716Z,101274.00
2022-11-27T22:05:33.367Z,101277.20
2022-11-27T22:10:46.459Z,101272.80
2022-11-27T22:15:56.336Z,101270.40
2022-11-27T22:21:10.931Z,101266.20
2022-11-27T22:26:22.386Z,101264.40
2022-11-27T22:31:34.318Z,101276.40
2022-11-27T22:36:43.933Z,101277.20
2022-11-27T22:41:53.426Z,101278.80
2022-11-27T22:47:02.997Z,101282.60
2022-11-27T22:52:12.637Z,101285.00
2022-11-27T22:57:22.161Z,101279.60
2022-11-27T23:02:32.160Z,101280.40
2022-11-27T23:07:41.732Z,101269.20
2022-11-27T23:12:51.524Z,101273.40
2022-11-27T23:18:01.031Z,101272.60
2022-11-27T23:23:10.728Z,101277.20
2022-11-27T23:28:20.379Z,101278.20
2022-11-27T23:33:30.003Z,101271.20
2022-11-27T23:38:41.194Z,101278.20
2022-11-27T23:43:51.624Z,101272.60
2022-11-27T23:49:02.851Z,101273.80
2022-11-27T23:54:15.253Z,101265.00
2022-11-27T23:59:25.337Z,101267.20
